Time;durP1;ratioP1;P1;durP2;ratioP2;P2;SDS_P1;SDS_P2;PMS_P1;PMS_P2;Temp;Humidity;BMP_temperature;BMP_pressure;BME280_temperature;BME280_humidity;BME280_pressure;Samples;Min_cycle;Max_cycle;Signal;HPM_P1;HPM_P2
2021/12/23 00:01:12;;;;;;;16.47;11.17;;;-4.40;99.90;;;;;;5029816;28;20621;-77
2021/12/23 00:03:38;;;;;;;16.73;13.33;;;-4.40;99.90;;;;;;5031225;28;20181;-76
2021/12/23 00:06:03;;;;;;;17.67;13.00;;;-4.50;99.90;;;;;;5025104;28;20181;-76
2021/12/23 00:08:29;;;;;;;19.00;13.00;;;-4.50;99.90;;;;;;5027756;28;20507;-77
2021/12/23 00:10:55;;;;;;;14.37;11.47;;;-4.50;99.90;;;;;;5027326;28;20209;-75
2021/12/23 00:13:21;;;;;;;16.70;12.20;;;-4.40;99.90;;;;;;5023840;28;20203;-76
2021/12/23 00:16:02;;;;;;;16.83;12.70;;;-4.40;99.90;;;;;;5029298;28;20184;-76
2021/12/23 00:23:53;;;;;;;15.87;11.93;;;-4.40;99.90;;;;;;5032575;28;20184;-76
2021/12/23 00:26:19;;;;;;;15.20;12.57;;;-4.30;99.90;;;;;;5029471;28;20173;-76
2021/12/23 00:28:45;;;;;;;17.37;12.60;;;-4.20;99.90;;;;;;5022903;28;20181;-76
2021/12/23 00:31:11;;;;;;;17.13;12.80;;;-4.20;99.90;;;;;;5029812;28;20663;-76
2021/12/23 00:33:39;;;;;;;14.20;12.40;;;-4.20;99.90;;;;;;5030994;28;20181;-76
2021/12/23 00:36:06;;;;;;;17.70;13.50;;;-4.20;99.90;;;;;;5026355;28;20270;-76
2021/12/23 00:38:37;;;;;;;18.77;13.60;;;-4.20;99.90;;;;;;5025196;28;20205;-76
2021/12/23 00:41:04;;;;;;;15.30;11.57;;;-4.20;99.90;;;;;;5025247;28;20229;-76
2021/12/23 00:43:32;;;;;;;18.10;13.27;;;-4.10;99.90;;;;;;5030381;28;20176;-75
2021/12/23 00:45:59;;;;;;;15.53;12.20;;;-4.10;99.90;;;;;;5025891;28;20185;-76
2021/12/23 00:48:26;;;;;;;15.33;12.60;;;-4.10;99.90;;;;;;5028285;28;20263;-76
2021/12/23 00:50:52;;;;;;;14.90;12.07;;;-4.10;99.90;;;;;;5028655;28;20564;-76
2021/12/23 00:53:20;;;;;;;17.97;12.87;;;-4.10;99.90;;;;;;5029715;28;20655;-76
2021/12/23 00:55:51;;;;;;;15.23;11.83;;;-4.10;99.90;;;;;;5023089;28;20231;-76
2021/12/23 00:58:17;;;;;;;17.40;12.80;;;-4.10;99.90;;;;;;5027158;28;20213;-76
2021/12/23 01:00:44;;;;;;;15.00;11.43;;;-4.10;99.90;;;;;;5034024;28;20239;-77
2021/12/23 01:03:10;;;;;;;17.93;12.60;;;-4.10;99.90;;;;;;5028705;28;20193;-76
2021/12/23 01:05:36;;;;;;;17.47;13.93;;;-4.10;99.90;;;;;;5025842;28;20188;-77
2021/12/23 01:08:03;;;;;;;16.37;12.40;;;-4.20;99.90;;;;;;5028182;28;20185;-77
2021/12/23 01:10:29;;;;;;;15.30;12.73;;;-4.20;99.90;;;;;;5024831;28;20645;-77
2021/12/23 01:12:59;;;;;;;17.53;12.70;;;-4.20;99.90;;;;;;5030856;28;20183;-76
2021/12/23 01:15:57;;;;;;;16.80;11.90;;;-4.30;99.90;;;;;;5030120;28;20595;-76
2021/12/23 01:18:18;;;;;;;16.40;12.83;;;-4.30;99.90;;;;;;5024059;28;20176;-77
2021/12/23 01:20:52;;;;;;;16.97;12.63;;;-4.30;99.90;;;;;;5027472;28;20295;-77
2021/12/23 01:23:21;;;;;;;17.30;13.77;;;-4.30;99.90;;;;;;5028916;28;20173;-77
2021/12/23 01:25:47;;;;;;;14.20;12.63;;;-4.30;99.90;;;;;;5024041;28;20245;-76
2021/12/23 01:28:14;;;;;;;14.47;11.83;;;-4.30;99.90;;;;;;5033103;28;20220;-76
2021/12/23 01:30:39;;;;;;;16.37;12.50;;;-4.30;99.90;;;;;;5025811;28;20213;-77
2021/12/23 01:33:07;;;;;;;16.27;13.17;;;-4.30;99.90;;;;;;5025099;28;20191;-77
2021/12/23 01:35:33;;;;;;;15.80;12.43;;;-4.30;99.90;;;;;;5031043;28;20172;-77
2021/12/23 01:38:00;;;;;;;16.07;12.73;;;-4.30;99.90;;;;;;5026118;28;20648;-77
2021/12/23 01:40:28;;;;;;;16.37;12.97;;;-4.30;99.90;;;;;;5025762;28;20619;-77
2021/12/23 01:42:54;;;;;;;16.60;13.00;;;-4.30;99.90;;;;;;5030284;28;20188;-77
2021/12/23 01:45:23;;;;;;;19.07;13.20;;;-4.30;99.90;;;;;;5024386;28;20177;-77
2021/12/23 01:47:50;;;;;;;18.20;13.43;;;-4.30;99.90;;;;;;5028059;28;20189;-77
2021/12/23 01:50:18;;;;;;;18.60;13.67;;;-4.30;99.90;;;;;;5027504;28;20291;-77
2021/12/23 01:52:44;;;;;;;18.20;12.97;;;-4.40;99.90;;;;;;5030288;28;20194;-76
2021/12/23 01:55:11;;;;;;;19.10;13.23;;;-4.30;99.90;;;;;;5022812;28;20268;-76
2021/12/23 01:57:39;;;;;;;17.60;12.50;;;-4.20;99.90;;;;;;5029074;28;20191;-76
2021/12/23 02:00:12;;;;;;;18.67;12.87;;;-4.20;99.90;;;;;;5026660;28;20220;-76
2021/12/23 02:02:38;;;;;;;19.73;13.27;;;-4.10;99.90;;;;;;5030714;28;20647;-76
2021/12/23 02:05:05;;;;;;;18.07;12.83;;;-4.10;99.90;;;;;;5025531;28;20192;-76
2021/12/23 02:07:30;;;;;;;17.33;12.93;;;-4.00;99.90;;;;;;5032373;28;20185;-76
2021/12/23 02:09:57;;;;;;;16.40;13.00;;;-4.00;99.90;;;;;;5027364;28;20274;-75
2021/12/23 02:12:23;;;;;;;17.30;13.67;;;-4.00;99.90;;;;;;5032926;28;20223;-76
2021/12/23 02:14:49;;;;;;;19.50;14.50;;;-4.10;99.90;;;;;;5033543;28;20231;-76
2021/12/23 02:17:15;;;;;;;16.67;12.87;;;-4.20;99.90;;;;;;5036142;28;20590;-76
2021/12/23 02:19:40;;;;;;;17.13;13.53;;;-4.20;99.90;;;;;;5025548;28;20211;-76
2021/12/23 02:22:06;;;;;;;19.93;13.23;;;-4.10;99.90;;;;;;5034179;28;20188;-76
2021/12/23 02:24:32;;;;;;;16.83;12.90;;;-4.00;99.90;;;;;;5029297;28;20750;-76
2021/12/23 02:26:57;;;;;;;15.63;11.80;;;-4.00;99.90;;;;;;5044172;28;20280;-76
2021/12/23 02:29:23;;;;;;;13.83;12.20;;;-4.00;99.90;;;;;;5034723;28;20303;-77
2021/12/23 02:31:50;;;;;;;15.13;11.53;;;-4.00;99.90;;;;;;5033482;28;20222;-77
2021/12/23 02:34:18;;;;;;;16.33;13.63;;;-4.00;99.90;;;;;;5035945;28;20558;-77
2021/12/23 02:36:56;;;;;;;15.27;12.07;;;-4.00;99.90;;;;;;5032912;28;20191;-77
2021/12/23 02:39:23;;;;;;;16.17;12.03;;;-4.00;99.90;;;;;;5025048;28;20201;-77
2021/12/23 02:41:50;;;;;;;15.20;12.57;;;-4.00;99.90;;;;;;5035457;28;20188;-77
2021/12/23 02:44:16;;;;;;;15.87;12.53;;;-3.90;99.90;;;;;;5036412;28;20264;-78
2021/12/23 02:46:42;;;;;;;14.43;11.87;;;-3.90;99.90;;;;;;5032453;28;20699;-78
2021/12/23 02:49:09;;;;;;;16.20;11.90;;;-4.00;99.90;;;;;;5032330;28;20212;-78
2021/12/23 02:51:35;;;;;;;14.87;12.47;;;-4.00;99.90;;;;;;5049007;28;20188;-78
2021/12/23 02:54:00;;;;;;;14.73;11.83;;;-3.90;99.90;;;;;;5032285;28;20185;-77
2021/12/23 02:56:26;;;;;;;15.37;12.40;;;-3.90;99.90;;;;;;5030813;28;20231;-77
2021/12/23 02:58:52;;;;;;;16.03;11.57;;;-4.00;99.90;;;;;;5035014;28;20519;-78
2021/12/23 03:01:19;;;;;;;17.03;11.13;;;-4.00;99.90;;;;;;5025835;28;20199;-75
2021/12/23 03:03:45;;;;;;;15.97;12.07;;;-4.00;99.90;;;;;;5026418;28;20185;-76
2021/12/23 03:06:12;;;;;;;17.50;12.47;;;-4.00;99.90;;;;;;5035370;28;20640;-76
2021/12/23 03:08:44;;;;;;;16.00;11.83;;;-4.00;99.90;;;;;;5035477;28;20176;-77
2021/12/23 03:11:14;;;;;;;16.03;11.13;;;-4.00;99.90;;;;;;5030081;28;20181;-76
2021/12/23 03:13:40;;;;;;;13.73;11.67;;;-4.00;99.90;;;;;;5025030;28;20587;-76
2021/12/23 03:16:07;;;;;;;14.77;10.67;;;-4.00;99.90;;;;;;5023252;28;20193;-75
2021/12/23 03:18:33;;;;;;;13.03;10.73;;;-4.00;99.90;;;;;;5034879;28;20639;-76
2021/12/23 03:20:59;;;;;;;15.03;11.77;;;-4.00;99.90;;;;;;5029778;28;20759;-77
2021/12/23 03:23:26;;;;;;;13.00;10.70;;;-4.00;99.90;;;;;;5023461;28;20224;-77
2021/12/23 03:25:51;;;;;;;14.53;12.07;;;-4.10;99.90;;;;;;5022511;28;20177;-75
2021/12/23 03:28:17;;;;;;;14.30;12.17;;;-4.10;99.90;;;;;;5034373;28;20189;-76
2021/12/23 03:30:44;;;;;;;16.37;11.97;;;-4.10;99.90;;;;;;5029721;28;20287;-76
2021/12/23 03:33:09;;;;;;;15.53;11.97;;;-4.20;99.90;;;;;;5029357;28;20724;-77
2021/12/23 03:35:36;;;;;;;13.43;11.43;;;-4.20;99.90;;;;;;5029720;28;20251;-76
2021/12/23 03:38:03;;;;;;;17.63;13.30;;;-4.10;99.90;;;;;;5032396;28;20178;-76
2021/12/23 03:40:29;;;;;;;15.10;12.23;;;-4.10;99.90;;;;;;5032413;28;20765;-77
2021/12/23 03:42:55;;;;;;;14.67;12.03;;;-4.10;99.90;;;;;;5033047;28;20220;-76
2021/12/23 03:45:21;;;;;;;13.93;11.20;;;-4.00;99.90;;;;;;5032745;28;20224;-77
2021/12/23 03:47:48;;;;;;;14.07;11.03;;;-4.00;99.90;;;;;;5030697;28;20187;-76
2021/12/23 03:50:18;;;;;;;20.03;12.37;;;-3.90;99.90;;;;;;5030075;28;20215;-77
2021/12/23 03:52:44;;;;;;;16.80;11.43;;;-3.90;99.90;;;;;;5032284;28;20188;-76
2021/12/23 03:55:10;;;;;;;15.63;11.43;;;-3.90;99.90;;;;;;5030687;28;20260;-75
2021/12/23 03:57:36;;;;;;;16.37;11.27;;;-3.90;99.90;;;;;;5032217;28;20172;-76
2021/12/23 04:00:07;;;;;;;18.17;12.90;;;-3.80;99.90;;;;;;4991517;28;1145043;-76
2021/12/23 04:02:34;;;;;;;17.67;12.50;;;-3.80;99.90;;;;;;5027800;28;20179;-76
2021/12/23 04:04:59;;;;;;;16.00;12.60;;;-3.90;99.90;;;;;;5024110;28;20259;-75
2021/12/23 04:07:25;;;;;;;15.67;11.93;;;-3.90;99.90;;;;;;5031361;28;20184;-77
2021/12/23 04:09:51;;;;;;;14.47;12.73;;;-3.90;99.90;;;;;;5026378;28;20220;-76
2021/12/23 04:12:16;;;;;;;17.70;13.30;;;-4.00;99.90;;;;;;5027202;28;20177;-76
2021/12/23 04:14:42;;;;;;;16.97;14.17;;;-4.00;99.90;;;;;;5025292;28;20555;-76
2021/12/23 04:17:08;;;;;;;19.27;13.23;;;-4.10;99.90;;;;;;5029137;28;20644;-76
2021/12/23 04:19:33;;;;;;;15.57;12.20;;;-4.10;99.90;;;;;;5032187;28;20204;-76
2021/12/23 04:22:00;;;;;;;15.57;11.93;;;-4.00;99.90;;;;;;5029533;28;20185;-76
2021/12/23 04:24:25;;;;;;;19.00;13.40;;;-4.00;99.90;;;;;;5027471;28;20172;-76
2021/12/23 04:26:51;;;;;;;15.37;11.83;;;-4.00;99.90;;;;;;5034163;28;20720;-76
2021/12/23 04:29:17;;;;;;;14.90;12.03;;;-4.00;99.90;;;;;;5033936;28;20203;-76
2021/12/23 04:31:44;;;;;;;17.30;12.27;;;-3.90;99.90;;;;;;5025772;28;20173;-76
2021/12/23 04:34:10;;;;;;;17.93;13.70;;;-3.90;99.90;;;;;;5023555;28;20256;-76
2021/12/23 04:36:35;;;;;;;14.27;12.70;;;-4.00;99.90;;;;;;5025789;28;20203;-76
2021/12/23 04:39:02;;;;;;;14.37;12.33;;;-4.00;99.90;;;;;;5022879;28;20233;-76
2021/12/23 04:41:28;;;;;;;17.77;14.47;;;-4.10;99.90;;;;;;5030815;28;20740;-76
2021/12/23 04:43:55;;;;;;;14.17;12.67;;;-4.10;99.90;;;;;;5028685;28;20260;-76
2021/12/23 04:46:21;;;;;;;15.20;12.57;;;-4.10;99.90;;;;;;5027836;28;20181;-76
2021/12/23 04:48:47;;;;;;;14.60;12.30;;;-4.10;99.90;;;;;;5025031;28;20716;-76
2021/12/23 04:51:14;;;;;;;14.37;12.13;;;-4.00;99.90;;;;;;5031712;28;20195;-76
2021/12/23 04:53:40;;;;;;;15.57;11.90;;;-3.90;99.90;;;;;;5031907;28;20264;-76
2021/12/23 04:56:06;;;;;;;15.67;12.20;;;-3.80;99.90;;;;;;5020412;28;20209;-76
2021/12/23 04:58:32;;;;;;;15.60;12.03;;;-3.80;99.90;;;;;;5029089;28;20205;-77
2021/12/23 05:00:57;;;;;;;17.50;12.63;;;-3.80;99.90;;;;;;5031214;28;20224;-76
2021/12/23 05:03:26;;;;;;;15.00;11.40;;;-3.80;99.90;;;;;;5025706;28;20249;-75
2021/12/23 05:05:52;;;;;;;19.33;11.93;;;-3.80;99.90;;;;;;5021901;28;20181;-75
2021/12/23 05:08:19;;;;;;;15.37;12.70;;;-3.80;99.90;;;;;;5022371;28;20219;-76
2021/12/23 05:10:44;;;;;;;14.60;11.50;;;-3.80;99.90;;;;;;5026220;28;20215;-76
2021/12/23 05:13:11;;;;;;;16.13;12.73;;;-3.80;99.90;;;;;;5032291;28;20185;-76
2021/12/23 05:15:36;;;;;;;14.27;11.70;;;-3.80;99.90;;;;;;5026448;28;20185;-76
2021/12/23 05:18:03;;;;;;;16.03;12.07;;;-3.80;99.90;;;;;;5043959;28;20195;-76
2021/12/23 05:20:28;;;;;;;14.73;12.03;;;-3.80;99.90;;;;;;5027131;28;20584;-76
2021/12/23 05:22:55;;;;;;;18.43;12.03;;;-3.80;99.90;;;;;;5028642;28;20177;-76
2021/12/23 05:25:21;;;;;;;14.90;11.13;;;-3.80;99.90;;;;;;5031689;28;20190;-76
2021/12/23 05:27:47;;;;;;;14.80;11.63;;;-3.80;99.90;;;;;;5028259;28;20185;-76
2021/12/23 05:30:16;;;;;;;15.47;11.40;;;-3.80;99.90;;;;;;5026958;28;20682;-76
2021/12/23 05:32:43;;;;;;;13.53;11.53;;;-3.80;99.90;;;;;;5021230;28;20192;-76
2021/12/23 05:35:11;;;;;;;16.83;13.17;;;-3.80;99.90;;;;;;5032082;28;20187;-76
2021/12/23 05:37:36;;;;;;;15.03;12.17;;;-3.90;99.90;;;;;;5026680;28;20181;-76
2021/12/23 05:40:04;;;;;;;19.10;14.27;;;-3.90;99.90;;;;;;5022573;28;20220;-76
2021/12/23 05:42:30;;;;;;;18.57;13.80;;;-4.00;99.90;;;;;;5020405;28;20679;-75
2021/12/23 05:44:56;;;;;;;19.40;14.17;;;-4.00;99.90;;;;;;5023772;28;20185;-76
2021/12/23 05:47:22;;;;;;;19.93;13.50;;;-4.10;99.90;;;;;;5025054;28;20719;-77
2021/12/23 05:49:48;;;;;;;22.97;14.67;;;-4.10;99.90;;;;;;5018607;28;20212;-76
2021/12/23 05:52:13;;;;;;;18.57;13.00;;;-4.10;99.90;;;;;;5031526;28;20211;-76
2021/12/23 05:54:39;;;;;;;15.77;13.03;;;-4.10;99.90;;;;;;5016992;28;20548;-77
2021/12/23 05:57:05;;;;;;;16.20;12.17;;;-4.10;99.90;;;;;;5026675;28;20204;-76
2021/12/23 05:59:32;;;;;;;18.87;13.33;;;-4.10;99.90;;;;;;5016113;28;20255;-77
2021/12/23 06:01:59;;;;;;;17.50;13.30;;;-4.10;99.90;;;;;;5023118;28;20204;-77
2021/12/23 06:04:25;;;;;;;16.60;13.53;;;-4.20;99.90;;;;;;5019966;28;20785;-77
2021/12/23 06:06:51;;;;;;;19.43;13.87;;;-4.20;99.90;;;;;;5029688;28;20185;-76
2021/12/23 06:09:16;;;;;;;17.93;13.40;;;-4.30;99.90;;;;;;5018528;28;20204;-77
2021/12/23 06:11:42;;;;;;;17.00;13.20;;;-4.30;99.90;;;;;;5023899;28;20192;-77
2021/12/23 06:14:08;;;;;;;20.07;13.53;;;-4.30;99.90;;;;;;5019983;28;20664;-77
2021/12/23 06:16:34;;;;;;;18.97;14.67;;;-4.30;99.90;;;;;;5018264;28;20178;-77
2021/12/23 06:18:59;;;;;;;18.70;13.53;;;-4.30;99.90;;;;;;5025921;28;20216;-76
2021/12/23 06:21:28;;;;;;;18.33;15.23;;;-4.40;99.90;;;;;;5023794;28;20211;-76
2021/12/23 06:23:54;;;;;;;20.23;14.07;;;-4.30;99.90;;;;;;5035477;28;20248;-76
2021/12/23 06:26:21;;;;;;;21.20;14.23;;;-4.40;99.90;;;;;;5018226;28;20181;-75
2021/12/23 06:28:46;;;;;;;22.53;14.33;;;-4.40;99.90;;;;;;5015304;28;20537;-76
2021/12/23 06:31:12;;;;;;;22.90;15.33;;;-4.40;99.90;;;;;;5019159;28;20215;-75
2021/12/23 06:33:38;;;;;;;20.67;14.17;;;-4.50;99.90;;;;;;5022880;28;20180;-73
2021/12/23 06:36:05;;;;;;;20.00;15.27;;;-4.50;99.90;;;;;;5024991;28;20703;-74
2021/12/23 06:38:31;;;;;;;20.00;15.67;;;-4.50;99.90;;;;;;5023162;28;20180;-76
2021/12/23 06:40:57;;;;;;;20.70;15.93;;;-4.50;99.90;;;;;;5025642;28;20323;-77
2021/12/23 06:43:23;;;;;;;18.67;14.93;;;-4.50;99.90;;;;;;5025275;28;20212;-76
2021/12/23 06:45:49;;;;;;;22.93;15.93;;;-4.50;99.90;;;;;;5022757;28;20223;-76
2021/12/23 06:48:15;;;;;;;19.17;14.63;;;-4.60;99.90;;;;;;5023192;28;20549;-76
2021/12/23 06:50:41;;;;;;;20.47;15.67;;;-4.60;99.90;;;;;;5018916;28;20236;-75
2021/12/23 06:53:07;;;;;;;19.83;14.87;;;-4.60;99.90;;;;;;5025466;28;20192;-75
2021/12/23 06:55:32;;;;;;;20.63;16.93;;;-4.50;99.90;;;;;;5044709;28;20235;-76
2021/12/23 06:57:58;;;;;;;22.90;15.07;;;-4.50;99.90;;;;;;5030510;28;20220;-78
2021/12/23 07:00:26;;;;;;;21.43;16.90;;;-4.50;99.90;;;;;;5028261;28;20223;-76
2021/12/23 07:02:53;;;;;;;20.57;15.90;;;-4.40;99.90;;;;;;5029366;28;20176;-75
2021/12/23 07:05:19;;;;;;;24.77;15.80;;;-4.30;99.90;;;;;;5024943;28;20172;-76
2021/12/23 07:08:04;;;;;;;22.97;16.77;;;-4.20;99.90;;;;;;5025254;28;20260;-76
2021/12/23 07:10:31;;;;;;;20.90;16.00;;;-4.20;99.90;;;;;;5028923;28;20200;-74
2021/12/23 07:12:58;;;;;;;20.03;15.23;;;-4.30;99.90;;;;;;5026359;28;20280;-75
2021/12/23 07:15:25;;;;;;;21.73;16.43;;;-4.20;99.90;;;;;;5027042;28;20227;-76
2021/12/23 07:17:52;;;;;;;18.93;14.70;;;-4.10;99.90;;;;;;5024570;28;20173;-75
2021/12/23 07:20:18;;;;;;;19.80;15.97;;;-4.00;99.90;;;;;;5027815;28;20206;-75
2021/12/23 07:22:44;;;;;;;19.67;15.90;;;-4.00;99.90;;;;;;5021760;28;20177;-76
2021/12/23 07:25:12;;;;;;;19.40;15.63;;;-4.00;99.90;;;;;;5024151;28;20198;-74
2021/12/23 07:27:38;;;;;;;22.13;16.73;;;-3.90;99.90;;;;;;5026879;28;20273;-76
2021/12/23 07:30:05;;;;;;;23.13;16.00;;;-3.90;99.90;;;;;;5035409;28;20212;-77
2021/12/23 07:32:31;;;;;;;21.30;15.67;;;-3.90;99.90;;;;;;5022381;28;20173;-75
2021/12/23 07:34:56;;;;;;;22.10;16.73;;;-3.70;99.90;;;;;;5026050;28;20185;-77
2021/12/23 07:37:22;;;;;;;22.03;16.63;;;-3.50;99.90;;;;;;5032778;28;20180;-75
2021/12/23 07:39:48;;;;;;;24.13;18.30;;;-3.50;99.90;;;;;;5023839;28;20216;-74
2021/12/23 07:42:15;;;;;;;24.10;17.00;;;-3.40;99.90;;;;;;5030482;28;20176;-74
2021/12/23 07:44:44;;;;;;;26.97;17.87;;;-3.30;99.90;;;;;;5030998;28;20188;-74
2021/12/23 07:47:11;;;;;;;25.73;17.70;;;-3.30;99.90;;;;;;5026869;28;20522;-74
2021/12/23 07:49:37;;;;;;;23.97;18.17;;;-3.30;99.90;;;;;;5027482;28;20200;-74
2021/12/23 07:52:03;;;;;;;22.07;14.77;;;-3.30;99.90;;;;;;5028019;28;20695;-74
2021/12/23 07:54:29;;;;;;;24.10;16.83;;;-3.10;99.90;;;;;;5031048;28;20188;-74
2021/12/23 07:56:54;;;;;;;25.03;18.97;;;-3.10;99.90;;;;;;5025994;28;20177;-73
2021/12/23 07:59:20;;;;;;;20.17;16.20;;;-2.90;99.90;;;;;;5021263;28;20220;-74
2021/12/23 08:01:46;;;;;;;20.73;16.70;;;-2.90;99.90;;;;;;5029659;28;20230;-73
2021/12/23 08:04:11;;;;;;;22.50;16.80;;;-3.00;99.90;;;;;;5030943;28;20555;-73
2021/12/23 08:06:37;;;;;;;19.20;15.57;;;-3.00;99.90;;;;;;5032250;28;20188;-73
2021/12/23 08:09:03;;;;;;;20.63;16.77;;;-3.00;99.90;;;;;;5025083;28;20209;-74
2021/12/23 08:11:29;;;;;;;25.13;18.43;;;-2.90;99.90;;;;;;5030824;28;20184;-73
2021/12/23 08:13:55;;;;;;;23.93;17.03;;;-2.80;99.90;;;;;;5025357;28;20542;-73
2021/12/23 08:16:20;;;;;;;24.67;15.57;;;-2.70;99.90;;;;;;5026766;28;20173;-73
2021/12/23 08:18:46;;;;;;;25.53;17.10;;;-2.60;99.90;;;;;;5024627;28;20267;-74
2021/12/23 08:21:12;;;;;;;26.67;16.93;;;-2.70;99.90;;;;;;5029549;28;20189;-74
2021/12/23 08:23:37;;;;;;;24.63;18.27;;;-2.70;99.90;;;;;;5028861;28;20181;-73
2021/12/23 08:26:03;;;;;;;23.87;17.37;;;-2.70;99.90;;;;;;5027520;28;20189;-73
2021/12/23 08:28:31;;;;;;;21.90;16.37;;;-2.60;99.90;;;;;;5025964;28;20539;-73
2021/12/23 08:30:57;;;;;;;23.60;18.13;;;-2.60;99.90;;;;;;5029286;28;20221;-73
2021/12/23 08:33:23;;;;;;;21.70;16.87;;;-2.60;99.90;;;;;;5032782;28;20234;-73
2021/12/23 08:35:49;;;;;;;25.67;18.07;;;-2.40;99.90;;;;;;5023650;28;20199;-73
2021/12/23 08:38:14;;;;;;;26.07;16.70;;;-2.40;99.90;;;;;;5027343;28;20550;-75
2021/12/23 08:40:40;;;;;;;23.07;17.20;;;-2.50;99.90;;;;;;5025467;28;20196;-73
2021/12/23 08:43:06;;;;;;;23.37;18.07;;;-2.50;99.90;;;;;;5026768;28;20185;-73
2021/12/23 08:45:33;;;;;;;20.27;14.53;;;-2.40;99.90;;;;;;5029114;28;20543;-74
2021/12/23 08:47:59;;;;;;;21.77;17.17;;;-2.20;99.90;;;;;;5025807;28;20230;-74
2021/12/23 08:50:28;;;;;;;21.30;14.30;;;-2.20;99.90;;;;;;5024644;28;20204;-73
2021/12/23 08:52:54;;;;;;;24.73;17.00;;;-2.50;99.90;;;;;;5024519;28;20177;-73
2021/12/23 08:55:21;;;;;;;19.50;14.60;;;-2.50;99.90;;;;;;5024614;28;20176;-73
2021/12/23 08:57:47;;;;;;;27.87;18.47;;;-2.50;99.90;;;;;;5023797;28;20711;-72
2021/12/23 09:00:16;;;;;;;29.17;20.50;;;-2.50;99.90;;;;;;5027045;28;20220;-73
2021/12/23 09:02:42;;;;;;;23.93;15.50;;;-2.40;99.90;;;;;;5024006;28;20181;-72
2021/12/23 09:05:08;;;;;;;23.37;15.83;;;-2.40;99.90;;;;;;5026176;28;20200;-74
2021/12/23 09:07:34;;;;;;;25.43;17.50;;;-2.20;99.90;;;;;;5020376;28;20581;-74
2021/12/23 09:10:00;;;;;;;26.90;17.60;;;-2.10;99.90;;;;;;5026840;28;20219;-74
2021/12/23 09:12:26;;;;;;;25.83;18.23;;;-2.10;99.90;;;;;;5022829;28;20220;-73
2021/12/23 09:14:52;;;;;;;20.93;14.20;;;-1.90;99.90;;;;;;5024537;28;20188;-72
2021/12/23 09:17:18;;;;;;;19.87;12.27;;;-1.80;99.90;;;;;;5025734;28;20176;-73
2021/12/23 09:19:44;;;;;;;28.10;18.37;;;-1.70;99.90;;;;;;5025676;28;20222;-73
2021/12/23 09:22:11;;;;;;;27.27;19.57;;;-1.80;99.90;;;;;;5026669;28;20674;-73
2021/12/23 09:24:38;;;;;;;18.67;12.53;;;-1.80;99.90;;;;;;5023991;28;20193;-74
2021/12/23 09:27:56;;;;;;;24.50;18.13;;;-2.10;99.90;;;;;;5027764;28;20189;-74
2021/12/23 09:35:03;;;;;;;28.93;19.23;;;-2.60;99.90;;;;;;5024442;28;20191;-73
2021/12/23 09:37:28;;;;;;;31.67;20.93;;;-2.50;99.90;;;;;;5027528;28;20185;-73
2021/12/23 09:39:57;;;;;;;33.03;21.57;;;-2.40;99.90;;;;;;5024976;28;20279;-73
2021/12/23 09:42:27;;;;;;;32.87;20.50;;;-2.50;99.90;;;;;;5024307;28;20267;-73
2021/12/23 09:44:59;;;;;;;33.50;23.07;;;-2.40;99.90;;;;;;5025768;28;20184;-72
2021/12/23 09:47:28;;;;;;;31.87;19.37;;;-2.30;99.90;;;;;;5027928;28;20192;-75
2021/12/23 09:49:59;;;;;;;32.80;21.93;;;-2.20;99.90;;;;;;5023532;28;20215;-73
2021/12/23 09:52:29;;;;;;;37.70;22.27;;;-2.00;99.90;;;;;;5026871;28;20190;-73
2021/12/23 09:54:56;;;;;;;34.03;21.37;;;-1.90;99.90;;;;;;5022050;28;20177;-73
2021/12/23 09:57:22;;;;;;;39.00;25.00;;;-1.70;99.90;;;;;;5021026;28;20191;-74
2021/12/23 09:59:48;;;;;;;33.33;22.93;;;-1.60;99.90;;;;;;5024237;28;20208;-73
2021/12/23 10:02:15;;;;;;;26.70;17.73;;;-1.80;99.90;;;;;;5024588;28;20190;-73
2021/12/23 10:04:40;;;;;;;31.03;21.43;;;-1.70;99.90;;;;;;5025040;28;20203;-74
2021/12/23 10:07:06;;;;;;;34.00;21.97;;;-1.70;99.90;;;;;;5023415;28;20233;-74
2021/12/23 10:12:58;;;;;;;26.03;17.43;;;-1.10;99.90;;;;;;5028465;28;20340;-73
2021/12/23 10:31:41;;;;;;;27.77;18.87;;;-1.10;99.90;;;;;;5034398;28;20282;-74
2021/12/23 10:37:20;;;;;;;27.07;17.73;;;-1.10;99.90;;;;;;5026942;28;20541;-72
2021/12/23 10:39:52;;;;;;;25.50;18.47;;;-1.10;99.90;;;;;;5030370;28;20231;-74
2021/12/23 10:42:19;;;;;;;24.03;18.50;;;-1.20;99.90;;;;;;5028002;28;20190;-75
2021/12/23 10:44:54;;;;;;;29.17;19.80;;;-1.30;99.90;;;;;;5027408;28;20200;-74
2021/12/23 10:47:47;;;;;;;28.10;20.10;;;-1.10;99.90;;;;;;5027753;28;20191;-73
2021/12/23 10:50:23;;;;;;;25.13;18.70;;;-0.90;99.90;;;;;;5020878;28;20291;-74
2021/12/23 10:52:55;;;;;;;23.80;19.13;;;-0.90;99.90;;;;;;5019650;28;20599;-73
2021/12/23 10:58:14;;;;;;;21.73;17.17;;;-0.80;99.90;;;;;;5052981;28;20189;-73
2021/12/23 11:00:41;;;;;;;22.23;17.93;;;-1.00;99.90;;;;;;5034600;28;20223;-74
2021/12/23 11:06:11;;;;;;;23.70;17.40;;;-0.90;99.90;;;;;;5022082;28;20182;-73
2021/12/23 11:41:46;;;;;;;21.90;17.13;;;0.20;99.90;;;;;;5027454;28;20264;-72
2021/12/23 11:44:13;;;;;;;21.17;16.57;;;0.10;99.90;;;;;;5019843;28;20184;-72
2021/12/23 11:46:54;;;;;;;21.97;16.03;;;-0.10;99.90;;;;;;5031842;28;20709;-72
2021/12/23 11:49:20;;;;;;;21.70;17.23;;;0.00;99.90;;;;;;5032330;28;20199;-71
2021/12/23 11:54:18;;;;;;;23.47;17.50;;;-0.10;99.90;;;;;;5036029;28;20188;-72
2021/12/23 11:56:51;;;;;;;23.10;18.57;;;0.00;99.90;;;;;;5028455;28;20640;-73
2021/12/23 11:59:18;;;;;;;22.67;16.60;;;0.20;99.90;;;;;;5031590;28;20203;-72
2021/12/23 12:01:46;;;;;;;23.00;16.80;;;0.40;99.90;;;;;;5030219;28;20264;-72
2021/12/23 12:04:21;;;;;;;28.20;19.80;;;0.30;99.90;;;;;;5031391;28;20183;-71
2021/12/23 12:06:48;;;;;;;24.60;17.77;;;0.50;99.90;;;;;;5021268;28;20627;-72
2021/12/23 12:09:32;;;;;;;26.47;19.33;;;0.50;99.90;;;;;;5029319;28;20211;-73
2021/12/23 12:12:09;;;;;;;22.07;17.33;;;0.60;99.90;;;;;;5030409;28;20686;-72
2021/12/23 12:14:40;;;;;;;22.03;17.83;;;0.80;99.90;;;;;;5033538;28;20180;-72
2021/12/23 12:17:26;;;;;;;27.13;18.83;;;0.80;99.90;;;;;;5028182;28;20212;-72
2021/12/23 12:20:23;;;;;;;23.47;18.47;;;0.60;99.90;;;;;;5028087;28;20205;-73
2021/12/23 12:22:51;;;;;;;25.17;17.33;;;0.70;99.90;;;;;;5023546;28;20181;-72
2021/12/23 12:25:22;;;;;;;26.37;18.33;;;0.70;99.90;;;;;;5027170;28;20187;-71
2021/12/23 12:27:51;;;;;;;22.83;17.20;;;0.60;99.90;;;;;;5024885;28;20596;-72
2021/12/23 12:30:21;;;;;;;25.43;19.13;;;0.60;99.90;;;;;;5032165;28;20204;-72
2021/12/23 12:32:47;;;;;;;25.43;17.80;;;0.60;99.90;;;;;;5024944;28;20793;-72
2021/12/23 12:35:19;;;;;;;24.33;19.10;;;0.60;99.90;;;;;;5023103;28;20260;-72
2021/12/23 12:37:46;;;;;;;24.43;18.53;;;0.40;99.90;;;;;;5025142;28;20189;-72
2021/12/23 12:40:12;;;;;;;24.83;18.07;;;0.20;99.90;;;;;;5025931;28;20222;-72
2021/12/23 12:42:43;;;;;;;28.13;18.10;;;0.20;99.90;;;;;;5028539;28;20193;-71
2021/12/23 12:45:14;;;;;;;21.93;18.20;;;0.30;99.90;;;;;;5030323;28;20316;-71
2021/12/23 12:47:52;;;;;;;25.33;18.43;;;0.30;99.90;;;;;;5027276;28;20551;-71
2021/12/23 12:50:20;;;;;;;25.73;18.60;;;0.40;99.90;;;;;;5024773;28;20230;-72
2021/12/23 12:52:49;;;;;;;23.13;17.50;;;0.50;99.90;;;;;;5026546;28;20185;-72
2021/12/23 12:55:28;;;;;;;22.83;17.63;;;0.60;99.90;;;;;;5024069;28;20180;-72
2021/12/23 12:58:01;;;;;;;23.33;17.07;;;0.70;99.90;;;;;;5027694;28;21833;-71
2021/12/23 13:00:37;;;;;;;30.13;20.43;;;0.80;99.90;;;;;;5028207;28;20211;-72
2021/12/23 13:03:03;;;;;;;27.40;19.10;;;0.50;99.90;;;;;;5031899;28;20185;-72
2021/12/23 13:05:34;;;;;;;27.00;19.63;;;0.60;99.90;;;;;;5021307;28;20183;-72
2021/12/23 13:08:05;;;;;;;28.23;18.73;;;0.60;99.90;;;;;;5028863;28;20272;-72
2021/12/23 13:10:32;;;;;;;27.03;18.60;;;0.80;99.90;;;;;;5031219;28;20287;-72
2021/12/23 13:13:04;;;;;;;25.30;17.67;;;1.00;99.90;;;;;;5029584;28;20188;-72
2021/12/23 13:15:30;;;;;;;31.67;19.40;;;0.90;99.90;;;;;;5028934;28;20178;-70
2021/12/23 13:17:58;;;;;;;27.43;20.20;;;0.80;99.90;;;;;;5024720;28;20260;-72
2021/12/23 13:20:47;;;;;;;27.70;18.20;;;0.60;99.90;;;;;;5022507;28;20247;-71
2021/12/23 13:23:21;;;;;;;26.90;18.97;;;0.60;99.90;;;;;;5023994;28;20180;-71
2021/12/23 13:26:02;;;;;;;25.53;19.03;;;0.40;99.90;;;;;;5028806;28;20184;-71
2021/12/23 13:28:34;;;;;;;25.73;17.47;;;0.20;99.90;;;;;;5030769;28;20199;-71
2021/12/23 13:31:03;;;;;;;25.30;17.73;;;0.10;99.90;;;;;;5030113;28;20220;-70
2021/12/23 13:33:29;;;;;;;26.90;18.73;;;0.10;99.90;;;;;;5024623;28;20185;-71
2021/12/23 13:35:56;;;;;;;22.60;16.97;;;0.10;99.90;;;;;;5021520;28;21200;-72
2021/12/23 13:38:34;;;;;;;21.57;16.47;;;0.20;99.90;;;;;;5027995;28;20184;-72
2021/12/23 13:41:13;;;;;;;23.77;17.97;;;0.00;99.90;;;;;;5029920;28;20231;-72
2021/12/23 13:43:39;;;;;;;25.70;18.30;;;0.00;99.90;;;;;;5028687;28;20200;-71
2021/12/23 13:46:06;;;;;;;23.27;17.40;;;0.00;99.90;;;;;;5026147;28;20220;-71